Wetterdaten: aktuell Sonntag, 15.09.2019 12:00
Datum Zeit Temp. A. Feuchte A. Luftdruck Regen Wind Taupunkt Windchill Windben
15.09.2019 12:00 23,1 C 61 % 1024,3 hPa 0,0 l/m 4,3 km/h (1 Bft) 15,2 C 23,1 C 8,0 km/h (2 Bft)
15.09.2019 11:55 22,9 C 63 % 1024,4 hPa 0,0 l/m 1,2 km/h (1 Bft) 15,5 C 22,9 C 6,4 km/h (2 Bft)
15.09.2019 11:50 22,6 C 65 % 1024,5 hPa 0,0 l/m 2,4 km/h (1 Bft) 15,7 C 22,6 C 6,4 km/h (2 Bft)
15.09.2019 11:45 22,2 C 65 % 1024,5 hPa 0,0 l/m 3,6 km/h (1 Bft) 15,3 C 22,2 C 6,4 km/h (2 Bft)
15.09.2019 11:40 22,0 C 65 % 1024,5 hPa 0,0 l/m 2,8 km/h (1 Bft) 15,1 C 22,0 C 6,4 km/h (2 Bft)
15.09.2019 11:35 21,8 C 68 % 1024,5 hPa 0,0 l/m 1,1 km/h (1 Bft) 15,6 C 21,8 C 4,8 km/h (1 Bft)
15.09.2019 11:30 21,6 C 67 % 1024,6 hPa 0,0 l/m 0,6 km/h (0 Bft) 15,2 C 21,6 C 1,6 km/h (1 Bft)
15.09.2019 11:25 21,4 C 67 % 1024,8 hPa 0,0 l/m 1,5 km/h (1 Bft) 15,0 C 21,4 C 3,2 km/h (1 Bft)
15.09.2019 11:20 21,3 C 67 % 1024,7 hPa 0,0 l/m 0,8 km/h (0 Bft) 14,9 C 21,3 C 3,2 km/h (1 Bft)
15.09.2019 11:15 21,2 C 68 % 1024,8 hPa 0,0 l/m 1,6 km/h (1 Bft) 15,1 C 21,2 C 3,2 km/h (1 Bft)
15.09.2019 11:10 20,8 C 69 % 1024,9 hPa 0,0 l/m 1,2 km/h (1 Bft) 14,9 C 20,8 C 3,2 km/h (1 Bft)
15.09.2019 11:05 20,3 C 72 % 1024,9 hPa 0,0 l/m 1,4 km/h (1 Bft) 15,1 C 20,3 C 3,2 km/h (1 Bft)
15.09.2019 11:00 19,9 C 71 % 1024,8 hPa 0,0 l/m 0,7 km/h (0 Bft) 14,5 C 19,9 C 3,2 km/h (1 Bft)
15.09.2019 10:55 19,6 C 73 % 1024,9 hPa 0,0 l/m 1,2 km/h (1 Bft) 14,6 C 19,6 C 3,2 km/h (1 Bft)
15.09.2019 10:50 19,3 C 73 % 1024,9 hPa 0,0 l/m 1,9 km/h (1 Bft) 14,3 C 19,3 C 4,8 km/h (1 Bft)
15.09.2019 10:45 19,1 C 74 % 1024,8 hPa 0,0 l/m 1,7 km/h (1 Bft) 14,4 C 19,1 C 4,8 km/h (1 Bft)
15.09.2019 10:40 18,7 C 74 % 1024,9 hPa 0,0 l/m 1,5 km/h (1 Bft) 14,0 C 18,7 C 4,8 km/h (1 Bft)
15.09.2019 10:35 18,4 C 75 % 1025,0 hPa 0,0 l/m 4,1 km/h (1 Bft) 13,9 C 18,4 C 9,7 km/h (2 Bft)
15.09.2019 10:30 18,1 C 77 % 1025,0 hPa 0,0 l/m 1,9 km/h (1 Bft) 14,0 C 18,1 C 6,4 km/h (2 Bft)
15.09.2019 10:25 17,8 C 79 % 1025,0 hPa 0,0 l/m 1,5 km/h (1 Bft) 14,1 C 17,8 C 4,8 km/h (1 Bft)
15.09.2019 10:20 17,4 C 80 % 1025,1 hPa 0,0 l/m 1,6 km/h (1 Bft) 13,9 C 17,4 C 4,8 km/h (1 Bft)
_ Min-Zeit 06:50 12:00 12:00 - 00:00 06:50 06:50 00:00
Minimum _ 8,4 C 61 % 1024,3 hPa - 0,0 km/h (0 Bft) 6,5 C 8,4 C 0,0 km/h (0 Bft)
_ Max-Zeit 12:00 08:05 00:00 00:00 08:30 11:50 12:00 10:35
Maximum _ 23,1 C 90 % 1028,0 hPa 0,0 l/m 4,6 km/h
O (1 Bft)
15,7 C 23,1 C 9,7 km/h
S-SW (2 Bft)
Durchschnitt _ 12,0 C 82 % 1025,9 hPa #0,0 l/m 0,9 km/h (0 Bft) 8,9 C 12,0 C 1,9 km/h (1 Bft)